sensor_id;sensor_type;location;lat;lon;timestamp;P1;durP1;ratioP1;P2;durP2;ratioP2
9940;SDS011;5009;50.656;7.188;2024-03-22T05:02:16;21.30;;;18.00;;
9940;SDS011;5009;50.656;7.188;2024-03-22T05:04:42;24.70;;;18.27;;
9940;SDS011;5009;50.656;7.188;2024-03-22T05:07:08;21.23;;;18.10;;
9940;SDS011;5009;50.656;7.188;2024-03-22T05:09:34;21.67;;;18.20;;
9940;SDS011;5009;50.656;7.188;2024-03-22T05:11:59;24.73;;;17.70;;
9940;SDS011;5009;50.656;7.188;2024-03-22T05:14:25;25.53;;;19.40;;
9940;SDS011;5009;50.656;7.188;2024-03-22T05:16:51;20.47;;;17.33;;
9940;SDS011;5009;50.656;7.188;2024-03-22T05:19:17;22.03;;;17.33;;
9940;SDS011;5009;50.656;7.188;2024-03-22T05:21:42;21.70;;;17.03;;
9940;SDS011;5009;50.656;7.188;2024-03-22T05:24:08;22.77;;;18.80;;
9940;SDS011;5009;50.656;7.188;2024-03-22T05:26:33;22.33;;;18.20;;
9940;SDS011;5009;50.656;7.188;2024-03-22T05:29:01;24.87;;;17.70;;
9940;SDS011;5009;50.656;7.188;2024-03-22T05:31:27;22.93;;;17.67;;
9940;SDS011;5009;50.656;7.188;2024-03-22T05:33:53;23.10;;;16.93;;
9940;SDS011;5009;50.656;7.188;2024-03-22T05:36:19;20.70;;;17.37;;
9940;SDS011;5009;50.656;7.188;2024-03-22T05:38:44;21.97;;;17.43;;
9940;SDS011;5009;50.656;7.188;2024-03-22T05:41:10;22.07;;;16.83;;
9940;SDS011;5009;50.656;7.188;2024-03-22T05:43:35;23.97;;;17.43;;
9940;SDS011;5009;50.656;7.188;2024-03-22T05:46:01;23.30;;;17.70;;
9940;SDS011;5009;50.656;7.188;2024-03-22T05:48:26;20.60;;;16.60;;
9940;SDS011;5009;50.656;7.188;2024-03-22T05:50:52;20.33;;;16.80;;
9940;SDS011;5009;50.656;7.188;2024-03-22T05:53:18;22.67;;;16.10;;
9940;SDS011;5009;50.656;7.188;2024-03-22T05:55:43;20.43;;;16.57;;
9940;SDS011;5009;50.656;7.188;2024-03-22T05:58:09;20.33;;;17.47;;
9940;SDS011;5009;50.656;7.188;2024-03-22T06:00:35;19.60;;;16.40;;
9940;SDS011;5009;50.656;7.188;2024-03-22T06:03:00;18.00;;;16.10;;
9940;SDS011;5009;50.656;7.188;2024-03-22T06:05:26;22.33;;;16.93;;
9940;SDS011;5009;50.656;7.188;2024-03-22T06:07:51;20.37;;;16.63;;
9940;SDS011;5009;50.656;7.188;2024-03-22T06:10:17;18.93;;;16.07;;
9940;SDS011;5009;50.656;7.188;2024-03-22T06:12:42;23.47;;;16.97;;
9940;SDS011;5009;50.656;7.188;2024-03-22T06:15:09;17.07;;;15.27;;
9940;SDS011;5009;50.656;7.188;2024-03-22T06:17:35;19.07;;;16.20;;
9940;SDS011;5009;50.656;7.188;2024-03-22T06:20:00;18.97;;;16.00;;
9940;SDS011;5009;50.656;7.188;2024-03-22T06:22:27;20.70;;;16.27;;
9940;SDS011;5009;50.656;7.188;2024-03-22T06:24:53;21.33;;;15.63;;
9940;SDS011;5009;50.656;7.188;2024-03-22T06:27:18;19.70;;;15.60;;
9940;SDS011;5009;50.656;7.188;2024-03-22T06:29:44;17.70;;;15.07;;
9940;SDS011;5009;50.656;7.188;2024-03-22T06:32:09;19.17;;;15.60;;
9940;SDS011;5009;50.656;7.188;2024-03-22T06:34:35;19.33;;;15.13;;
9940;SDS011;5009;50.656;7.188;2024-03-22T06:37:01;21.13;;;16.13;;
9940;SDS011;5009;50.656;7.188;2024-03-22T06:39:27;22.27;;;16.00;;
9940;SDS011;5009;50.656;7.188;2024-03-22T06:41:52;18.83;;;15.70;;
9940;SDS011;5009;50.656;7.188;2024-03-22T06:44:18;17.60;;;14.80;;
9940;SDS011;5009;50.656;7.188;2024-03-22T06:46:44;21.50;;;16.30;;
9940;SDS011;5009;50.656;7.188;2024-03-22T06:49:09;19.67;;;14.53;;
9940;SDS011;5009;50.656;7.188;2024-03-22T06:51:35;18.97;;;16.03;;
9940;SDS011;5009;50.656;7.188;2024-03-22T06:54:01;20.40;;;15.60;;
9940;SDS011;5009;50.656;7.188;2024-03-22T06:56:27;21.30;;;15.50;;
9940;SDS011;5009;50.656;7.188;2024-03-22T06:58:52;20.13;;;14.50;;
9940;SDS011;5009;50.656;7.188;2024-03-22T07:01:18;18.70;;;15.80;;
9940;SDS011;5009;50.656;7.188;2024-03-22T07:03:45;19.13;;;15.47;;
9940;SDS011;5009;50.656;7.188;2024-03-22T07:06:13;16.17;;;14.53;;
9940;SDS011;5009;50.656;7.188;2024-03-22T07:08:39;18.67;;;15.03;;
9940;SDS011;5009;50.656;7.188;2024-03-22T07:11:05;20.03;;;15.00;;
9940;SDS011;5009;50.656;7.188;2024-03-22T07:13:31;18.17;;;14.77;;
9940;SDS011;5009;50.656;7.188;2024-03-22T07:15:57;16.43;;;14.10;;
9940;SDS011;5009;50.656;7.188;2024-03-22T07:18:22;17.37;;;14.40;;
9940;SDS011;5009;50.656;7.188;2024-03-22T07:20:48;15.97;;;13.67;;
9940;SDS011;5009;50.656;7.188;2024-03-22T07:23:14;17.30;;;14.07;;
9940;SDS011;5009;50.656;7.188;2024-03-22T07:25:39;18.63;;;14.20;;
9940;SDS011;5009;50.656;7.188;2024-03-22T07:28:07;17.23;;;14.30;;
9940;SDS011;5009;50.656;7.188;2024-03-22T07:30:33;16.50;;;14.07;;
9940;SDS011;5009;50.656;7.188;2024-03-22T07:33:00;18.17;;;13.47;;
9940;SDS011;5009;50.656;7.188;2024-03-22T07:35:26;17.63;;;13.80;;
9940;SDS011;5009;50.656;7.188;2024-03-22T07:37:51;18.87;;;13.17;;
9940;SDS011;5009;50.656;7.188;2024-03-22T07:40:17;18.63;;;13.10;;
9940;SDS011;5009;50.656;7.188;2024-03-22T07:42:42;17.70;;;12.77;;
9940;SDS011;5009;50.656;7.188;2024-03-22T07:45:08;14.07;;;12.67;;
9940;SDS011;5009;50.656;7.188;2024-03-22T07:47:33;14.53;;;12.90;;
9940;SDS011;5009;50.656;7.188;2024-03-22T07:49:59;14.03;;;12.40;;
9940;SDS011;5009;50.656;7.188;2024-03-22T07:52:25;15.77;;;12.90;;
9940;SDS011;5009;50.656;7.188;2024-03-22T07:54:50;14.67;;;12.33;;
9940;SDS011;5009;50.656;7.188;2024-03-22T07:57:16;16.93;;;12.43;;
9940;SDS011;5009;50.656;7.188;2024-03-22T07:59:41;19.73;;;13.63;;
9940;SDS011;5009;50.656;7.188;2024-03-22T08:02:09;15.67;;;12.50;;
9940;SDS011;5009;50.656;7.188;2024-03-22T08:04:34;13.77;;;11.63;;
9940;SDS011;5009;50.656;7.188;2024-03-22T08:07:00;15.30;;;11.83;;
9940;SDS011;5009;50.656;7.188;2024-03-22T08:09:25;16.30;;;11.47;;
9940;SDS011;5009;50.656;7.188;2024-03-22T08:11:51;15.03;;;10.73;;
9940;SDS011;5009;50.656;7.188;2024-03-22T08:14:17;14.20;;;11.23;;
9940;SDS011;5009;50.656;7.188;2024-03-22T08:16:42;14.57;;;10.30;;
9940;SDS011;5009;50.656;7.188;2024-03-22T08:19:08;11.90;;;10.68;;
9940;SDS011;5009;50.656;7.188;2024-03-22T08:21:33;12.05;;;10.63;;
9940;SDS011;5009;50.656;7.188;2024-03-22T08:23:59;16.92;;;10.75;;
9940;SDS011;5009;50.656;7.188;2024-03-22T08:26:25;13.52;;;10.35;;
9940;SDS011;5009;50.656;7.188;2024-03-22T08:28:50;13.10;;;10.13;;
9940;SDS011;5009;50.656;7.188;2024-03-22T08:31:16;12.52;;;9.88;;
9940;SDS011;5009;50.656;7.188;2024-03-22T08:33:42;11.43;;;9.18;;
9940;SDS011;5009;50.656;7.188;2024-03-22T08:36:08;11.63;;;9.18;;
9940;SDS011;5009;50.656;7.188;2024-03-22T08:38:33;11.15;;;8.68;;
9940;SDS011;5009;50.656;7.188;2024-03-22T08:40:59;13.23;;;9.40;;
9940;SDS011;5009;50.656;7.188;2024-03-22T08:43:25;11.10;;;9.90;;
9940;SDS011;5009;50.656;7.188;2024-03-22T08:45:52;14.32;;;9.35;;
9940;SDS011;5009;50.656;7.188;2024-03-22T08:48:18;11.05;;;9.70;;
9940;SDS011;5009;50.656;7.188;2024-03-22T08:50:44;10.15;;;9.02;;
9940;SDS011;5009;50.656;7.188;2024-03-22T08:53:09;12.93;;;10.18;;
9940;SDS011;5009;50.656;7.188;2024-03-22T08:55:35;10.65;;;9.30;;
9940;SDS011;5009;50.656;7.188;2024-03-22T08:58:01;12.55;;;10.10;;
9940;SDS011;5009;50.656;7.188;2024-03-22T09:00:28;11.25;;;9.52;;
9940;SDS011;5009;50.656;7.188;2024-03-22T09:02:54;11.30;;;9.65;;
9940;SDS011;5009;50.656;7.188;2024-03-22T09:05:20;11.23;;;9.20;;
9940;SDS011;5009;50.656;7.188;2024-03-22T09:07:45;10.57;;;9.35;;
9940;SDS011;5009;50.656;7.188;2024-03-22T09:10:11;12.15;;;8.70;;
9940;SDS011;5009;50.656;7.188;2024-03-22T09:12:36;11.45;;;9.85;;
9940;SDS011;5009;50.656;7.188;2024-03-22T09:15:02;12.35;;;9.48;;
9940;SDS011;5009;50.656;7.188;2024-03-22T09:17:28;11.65;;;9.63;;
9940;SDS011;5009;50.656;7.188;2024-03-22T09:19:54;12.30;;;9.02;;
9940;SDS011;5009;50.656;7.188;2024-03-22T09:22:19;15.73;;;10.07;;
9940;SDS011;5009;50.656;7.188;2024-03-22T09:24:45;10.63;;;9.20;;
9940;SDS011;5009;50.656;7.188;2024-03-22T09:27:10;11.68;;;9.93;;
9940;SDS011;5009;50.656;7.188;2024-03-22T09:29:36;13.23;;;10.38;;
9940;SDS011;5009;50.656;7.188;2024-03-22T09:32:02;11.82;;;10.38;;
9940;SDS011;5009;50.656;7.188;2024-03-22T09:34:28;12.57;;;10.95;;
9940;SDS011;5009;50.656;7.188;2024-03-22T09:36:58;12.57;;;10.93;;
9940;SDS011;5009;50.656;7.188;2024-03-22T09:39:23;13.10;;;11.77;;
9940;SDS011;5009;50.656;7.188;2024-03-22T09:41:50;12.68;;;11.13;;
9940;SDS011;5009;50.656;7.188;2024-03-22T09:44:17;14.35;;;12.60;;
9940;SDS011;5009;50.656;7.188;2024-03-22T09:46:44;14.05;;;12.57;;
9940;SDS011;5009;50.656;7.188;2024-03-22T09:49:11;13.93;;;12.15;;
9940;SDS011;5009;50.656;7.188;2024-03-22T09:51:39;15.40;;;12.80;;
9940;SDS011;5009;50.656;7.188;2024-03-22T09:54:06;13.90;;;12.38;;
9940;SDS011;5009;50.656;7.188;2024-03-22T09:56:33;15.10;;;12.73;;
9940;SDS011;5009;50.656;7.188;2024-03-22T09:59:00;15.23;;;13.55;;
9940;SDS011;5009;50.656;7.188;2024-03-22T10:01:25;14.73;;;13.15;;
9940;SDS011;5009;50.656;7.188;2024-03-22T10:03:51;14.43;;;12.90;;
9940;SDS011;5009;50.656;7.188;2024-03-22T10:06:17;15.65;;;13.85;;
9940;SDS011;5009;50.656;7.188;2024-03-22T10:08:43;14.73;;;13.20;;
9940;SDS011;5009;50.656;7.188;2024-03-22T10:11:09;15.48;;;12.65;;
9940;SDS011;5009;50.656;7.188;2024-03-22T10:13:35;14.60;;;12.82;;
9940;SDS011;5009;50.656;7.188;2024-03-22T10:16:01;17.02;;;14.32;;
9940;SDS011;5009;50.656;7.188;2024-03-22T10:18:27;16.40;;;14.25;;
9940;SDS011;5009;50.656;7.188;2024-03-22T10:21:00;15.25;;;13.07;;
9940;SDS011;5009;50.656;7.188;2024-03-22T10:23:25;15.00;;;12.98;;
9940;SDS011;5009;50.656;7.188;2024-03-22T10:25:51;17.40;;;13.25;;
9940;SDS011;5009;50.656;7.188;2024-03-22T10:28:17;15.18;;;13.57;;
9940;SDS011;5009;50.656;7.188;2024-03-22T10:30:43;14.32;;;12.55;;
9940;SDS011;5009;50.656;7.188;2024-03-22T10:33:10;15.80;;;12.48;;
9940;SDS011;5009;50.656;7.188;2024-03-22T10:35:36;14.02;;;12.45;;
9940;SDS011;5009;50.656;7.188;2024-03-22T10:38:02;13.30;;;11.95;;
9940;SDS011;5009;50.656;7.188;2024-03-22T10:40:28;13.38;;;12.07;;
9940;SDS011;5009;50.656;7.188;2024-03-22T10:42:55;13.80;;;12.48;;
9940;SDS011;5009;50.656;7.188;2024-03-22T10:45:22;15.45;;;11.95;;
9940;SDS011;5009;50.656;7.188;2024-03-22T10:47:50;12.02;;;10.82;;
9940;SDS011;5009;50.656;7.188;2024-03-22T10:50:20;13.98;;;11.63;;
9940;SDS011;5009;50.656;7.188;2024-03-22T10:52:51;12.40;;;10.52;;
9940;SDS011;5009;50.656;7.188;2024-03-22T10:55:33;12.10;;;10.88;;
9940;SDS011;5009;50.656;7.188;2024-03-22T10:58:00;14.55;;;10.80;;
9940;SDS011;5009;50.656;7.188;2024-03-22T11:00:29;11.95;;;10.68;;
9940;SDS011;5009;50.656;7.188;2024-03-22T11:02:56;11.85;;;10.38;;
9940;SDS011;5009;50.656;7.188;2024-03-22T11:05:22;9.80;;;8.90;;
9940;SDS011;5009;50.656;7.188;2024-03-22T11:07:58;10.38;;;9.15;;
9940;SDS011;5009;50.656;7.188;2024-03-22T11:10:29;10.00;;;8.57;;
9940;SDS011;5009;50.656;7.188;2024-03-22T11:13:07;9.55;;;8.55;;
9940;SDS011;5009;50.656;7.188;2024-03-22T11:15:34;10.18;;;8.48;;
9940;SDS011;5009;50.656;7.188;2024-03-22T11:18:00;10.25;;;8.48;;
9940;SDS011;5009;50.656;7.188;2024-03-22T11:20:29;8.75;;;7.80;;
9940;SDS011;5009;50.656;7.188;2024-03-22T11:22:55;10.70;;;7.45;;
9940;SDS011;5009;50.656;7.188;2024-03-22T11:25:21;8.90;;;7.50;;
9940;SDS011;5009;50.656;7.188;2024-03-22T11:27:47;11.75;;;8.68;;
9940;SDS011;5009;50.656;7.188;2024-03-22T11:30:13;9.60;;;8.70;;
9940;SDS011;5009;50.656;7.188;2024-03-22T11:32:40;9.30;;;8.27;;
9940;SDS011;5009;50.656;7.188;2024-03-22T11:35:11;10.88;;;7.80;;
9940;SDS011;5009;50.656;7.188;2024-03-22T11:37:38;8.40;;;7.60;;
9940;SDS011;5009;50.656;7.188;2024-03-22T11:40:04;8.77;;;7.20;;
9940;SDS011;5009;50.656;7.188;2024-03-22T11:42:32;9.23;;;8.32;;
9940;SDS011;5009;50.656;7.188;2024-03-22T11:44:58;10.18;;;8.38;;
9940;SDS011;5009;50.656;7.188;2024-03-22T11:47:24;11.40;;;8.27;;
9940;SDS011;5009;50.656;7.188;2024-03-22T11:49:50;10.50;;;7.38;;
9940;SDS011;5009;50.656;7.188;2024-03-22T11:52:16;10.73;;;7.65;;
9940;SDS011;5009;50.656;7.188;2024-03-22T11:54:41;9.38;;;8.25;;
9940;SDS011;5009;50.656;7.188;2024-03-22T11:57:08;7.90;;;6.93;;
9940;SDS011;5009;50.656;7.188;2024-03-22T11:59:34;8.82;;;6.70;;
9940;SDS011;5009;50.656;7.188;2024-03-22T12:02:00;7.20;;;6.15;;
9940;SDS011;5009;50.656;7.188;2024-03-22T12:04:25;6.88;;;6.18;;
9940;SDS011;5009;50.656;7.188;2024-03-22T12:06:51;7.28;;;5.90;;
9940;SDS011;5009;50.656;7.188;2024-03-22T12:09:18;7.50;;;5.93;;
9940;SDS011;5009;50.656;7.188;2024-03-22T12:11:43;7.22;;;6.35;;
9940;SDS011;5009;50.656;7.188;2024-03-22T12:14:09;6.90;;;5.70;;
9940;SDS011;5009;50.656;7.188;2024-03-22T12:16:34;6.43;;;5.80;;
9940;SDS011;5009;50.656;7.188;2024-03-22T12:19:01;6.28;;;5.50;;
9940;SDS011;5009;50.656;7.188;2024-03-22T12:21:26;7.72;;;5.47;;
9940;SDS011;5009;50.656;7.188;2024-03-22T12:23:52;6.43;;;5.72;;
9940;SDS011;5009;50.656;7.188;2024-03-22T12:26:18;8.85;;;5.63;;
9940;SDS011;5009;50.656;7.188;2024-03-22T12:28:43;6.57;;;5.78;;
9940;SDS011;5009;50.656;7.188;2024-03-22T12:31:09;7.07;;;5.57;;
9940;SDS011;5009;50.656;7.188;2024-03-22T12:33:38;6.45;;;5.20;;
9940;SDS011;5009;50.656;7.188;2024-03-22T12:36:04;7.70;;;5.93;;
9940;SDS011;5009;50.656;7.188;2024-03-22T12:38:29;7.03;;;5.15;;
9940;SDS011;5009;50.656;7.188;2024-03-22T12:40:55;5.20;;;4.70;;
9940;SDS011;5009;50.656;7.188;2024-03-22T12:43:21;4.93;;;3.92;;
9940;SDS011;5009;50.656;7.188;2024-03-22T12:45:47;3.83;;;3.33;;
9940;SDS011;5009;50.656;7.188;2024-03-22T12:48:12;4.05;;;3.58;;
9940;SDS011;5009;50.656;7.188;2024-03-22T12:50:38;5.18;;;3.40;;
9940;SDS011;5009;50.656;7.188;2024-03-22T12:53:04;3.63;;;2.72;;
9940;SDS011;5009;50.656;7.188;2024-03-22T12:55:29;3.25;;;2.88;;
9940;SDS011;5009;50.656;7.188;2024-03-22T12:57:56;4.60;;;3.25;;
9940;SDS011;5009;50.656;7.188;2024-03-22T13:00:22;4.22;;;3.28;;
9940;SDS011;5009;50.656;7.188;2024-03-22T13:02:48;5.22;;;3.40;;
9940;SDS011;5009;50.656;7.188;2024-03-22T13:05:13;5.18;;;3.88;;
9940;SDS011;5009;50.656;7.188;2024-03-22T13:07:40;5.45;;;4.40;;
9940;SDS011;5009;50.656;7.188;2024-03-22T13:10:07;6.30;;;4.22;;
9940;SDS011;5009;50.656;7.188;2024-03-22T13:12:33;7.18;;;4.28;;
9940;SDS011;5009;50.656;7.188;2024-03-22T13:15:01;4.20;;;3.80;;
9940;SDS011;5009;50.656;7.188;2024-03-22T13:17:27;3.67;;;2.97;;
9940;SDS011;5009;50.656;7.188;2024-03-22T13:19:53;2.80;;;2.60;;
9940;SDS011;5009;50.656;7.188;2024-03-22T13:22:18;4.28;;;2.72;;
9940;SDS011;5009;50.656;7.188;2024-03-22T13:24:44;2.65;;;2.45;;
9940;SDS011;5009;50.656;7.188;2024-03-22T13:27:10;2.53;;;2.33;;
9940;SDS011;5009;50.656;7.188;2024-03-22T13:29:37;2.70;;;2.50;;
9940;SDS011;5009;50.656;7.188;2024-03-22T13:32:03;5.05;;;4.10;;
9940;SDS011;5009;50.656;7.188;2024-03-22T13:34:30;7.13;;;5.57;;
9940;SDS011;5009;50.656;7.188;2024-03-22T13:36:56;6.18;;;5.57;;
9940;SDS011;5009;50.656;7.188;2024-03-22T13:39:21;5.97;;;5.47;;
9940;SDS011;5009;50.656;7.188;2024-03-22T13:41:48;8.73;;;6.20;;
9940;SDS011;5009;50.656;7.188;2024-03-22T13:44:14;7.32;;;5.80;;
9940;SDS011;5009;50.656;7.188;2024-03-22T13:46:39;7.65;;;5.88;;
9940;SDS011;5009;50.656;7.188;2024-03-22T13:49:13;8.45;;;5.47;;
9940;SDS011;5009;50.656;7.188;2024-03-22T13:51:43;5.75;;;5.00;;
9940;SDS011;5009;50.656;7.188;2024-03-22T13:54:09;6.20;;;5.60;;
9940;SDS011;5009;50.656;7.188;2024-03-22T13:56:36;6.78;;;5.32;;
9940;SDS011;5009;50.656;7.188;2024-03-22T13:59:03;5.35;;;4.85;;
9940;SDS011;5009;50.656;7.188;2024-03-22T14:01:30;6.28;;;5.00;;
9940;SDS011;5009;50.656;7.188;2024-03-22T14:03:59;6.65;;;5.45;;
9940;SDS011;5009;50.656;7.188;2024-03-22T14:06:26;6.88;;;5.40;;
9940;SDS011;5009;50.656;7.188;2024-03-22T14:08:51;6.75;;;5.38;;
9940;SDS011;5009;50.656;7.188;2024-03-22T14:11:19;6.82;;;6.13;;
9940;SDS011;5009;50.656;7.188;2024-03-22T14:13:45;7.07;;;6.38;;
9940;SDS011;5009;50.656;7.188;2024-03-22T14:16:10;6.68;;;6.00;;
9940;SDS011;5009;50.656;7.188;2024-03-22T14:18:36;11.90;;;6.38;;
9940;SDS011;5009;50.656;7.188;2024-03-22T14:21:02;7.03;;;5.85;;
9940;SDS011;5009;50.656;7.188;2024-03-22T14:23:28;6.35;;;5.07;;
9940;SDS011;5009;50.656;7.188;2024-03-22T14:25:54;5.72;;;4.53;;
9940;SDS011;5009;50.656;7.188;2024-03-22T14:28:20;7.55;;;4.47;;
9940;SDS011;5009;50.656;7.188;2024-03-22T14:30:46;5.50;;;5.00;;
9940;SDS011;5009;50.656;7.188;2024-03-22T14:33:12;5.88;;;4.75;;
9940;SDS011;5009;50.656;7.188;2024-03-22T14:35:38;8.45;;;5.05;;
9940;SDS011;5009;50.656;7.188;2024-03-22T14:38:03;5.45;;;4.45;;
9940;SDS011;5009;50.656;7.188;2024-03-22T14:40:29;5.32;;;4.80;;
9940;SDS011;5009;50.656;7.188;2024-03-22T14:42:56;4.82;;;4.32;;
9940;SDS011;5009;50.656;7.188;2024-03-22T14:45:22;4.88;;;4.30;;
9940;SDS011;5009;50.656;7.188;2024-03-22T14:47:47;4.15;;;3.75;;
9940;SDS011;5009;50.656;7.188;2024-03-22T14:50:13;4.78;;;3.90;;
9940;SDS011;5009;50.656;7.188;2024-03-22T14:52:39;5.07;;;4.15;;
9940;SDS011;5009;50.656;7.188;2024-03-22T14:55:04;5.97;;;3.50;;
9940;SDS011;5009;50.656;7.188;2024-03-22T14:57:31;4.78;;;3.58;;
9940;SDS011;5009;50.656;7.188;2024-03-22T14:59:56;3.80;;;3.40;;
9940;SDS011;5009;50.656;7.188;2024-03-22T15:02:22;4.57;;;3.58;;
9940;SDS011;5009;50.656;7.188;2024-03-22T15:04:48;3.65;;;3.15;;
9940;SDS011;5009;50.656;7.188;2024-03-22T15:07:13;3.42;;;3.13;;
9940;SDS011;5009;50.656;7.188;2024-03-22T15:09:40;3.80;;;2.97;;
9940;SDS011;5009;50.656;7.188;2024-03-22T15:12:06;4.05;;;3.10;;
9940;SDS011;5009;50.656;7.188;2024-03-22T15:14:34;3.70;;;3.20;;
9940;SDS011;5009;50.656;7.188;2024-03-22T15:16:59;3.28;;;2.97;;
9940;SDS011;5009;50.656;7.188;2024-03-22T15:19:25;6.20;;;3.88;;
9940;SDS011;5009;50.656;7.188;2024-03-22T15:21:51;4.57;;;3.40;;
9940;SDS011;5009;50.656;7.188;2024-03-22T15:24:16;3.60;;;3.30;;
9940;SDS011;5009;50.656;7.188;2024-03-22T15:26:42;5.75;;;4.40;;
9940;SDS011;5009;50.656;7.188;2024-03-22T15:29:08;5.57;;;4.57;;
9940;SDS011;5009;50.656;7.188;2024-03-22T15:31:33;4.70;;;3.75;;
9940;SDS011;5009;50.656;7.188;2024-03-22T15:33:59;4.15;;;3.75;;
9940;SDS011;5009;50.656;7.188;2024-03-22T15:36:25;7.63;;;3.67;;
9940;SDS011;5009;50.656;7.188;2024-03-22T15:38:50;3.25;;;2.80;;
9940;SDS011;5009;50.656;7.188;2024-03-22T15:41:16;8.32;;;3.30;;
9940;SDS011;5009;50.656;7.188;2024-03-22T15:43:43;7.22;;;5.35;;
9940;SDS011;5009;50.656;7.188;2024-03-22T15:46:09;6.25;;;5.35;;
9940;SDS011;5009;50.656;7.188;2024-03-22T15:48:35;8.27;;;5.28;;
9940;SDS011;5009;50.656;7.188;2024-03-22T15:51:00;8.20;;;5.30;;
9940;SDS011;5009;50.656;7.188;2024-03-22T15:53:26;7.20;;;5.95;;
9940;SDS011;5009;50.656;7.188;2024-03-22T15:55:52;7.45;;;5.50;;
9940;SDS011;5009;50.656;7.188;2024-03-22T15:58:18;6.93;;;5.93;;
9940;SDS011;5009;50.656;7.188;2024-03-22T16:00:44;7.45;;;5.80;;
9940;SDS011;5009;50.656;7.188;2024-03-22T16:03:11;7.30;;;5.55;;
9940;SDS011;5009;50.656;7.188;2024-03-22T16:05:41;6.35;;;5.40;;
9940;SDS011;5009;50.656;7.188;2024-03-22T16:08:19;7.63;;;5.97;;
9940;SDS011;5009;50.656;7.188;2024-03-22T16:10:46;7.65;;;5.60;;
9940;SDS011;5009;50.656;7.188;2024-03-22T16:13:12;6.07;;;5.47;;
9940;SDS011;5009;50.656;7.188;2024-03-22T16:15:37;6.82;;;6.18;;
9940;SDS011;5009;50.656;7.188;2024-03-22T16:18:04;6.80;;;6.10;;
9940;SDS011;5009;50.656;7.188;2024-03-22T16:20:30;6.78;;;5.78;;
9940;SDS011;5009;50.656;7.188;2024-03-22T16:22:55;7.53;;;5.53;;
9940;SDS011;5009;50.656;7.188;2024-03-22T16:25:21;8.27;;;5.78;;
9940;SDS011;5009;50.656;7.188;2024-03-22T16:27:47;8.38;;;7.47;;
9940;SDS011;5009;50.656;7.188;2024-03-22T16:30:12;8.07;;;6.60;;
9940;SDS011;5009;50.656;7.188;2024-03-22T16:32:38;7.63;;;6.68;;
9940;SDS011;5009;50.656;7.188;2024-03-22T16:35:04;8.50;;;7.35;;
9940;SDS011;5009;50.656;7.188;2024-03-22T16:37:32;8.30;;;7.45;;
9940;SDS011;5009;50.656;7.188;2024-03-22T16:39:58;12.18;;;9.10;;
9940;SDS011;5009;50.656;7.188;2024-03-22T16:42:24;10.95;;;9.80;;
9940;SDS011;5009;50.656;7.188;2024-03-22T16:44:49;10.25;;;9.30;;
9940;SDS011;5009;50.656;7.188;2024-03-22T16:47:15;10.80;;;9.68;;
9940;SDS011;5009;50.656;7.188;2024-03-22T16:49:40;13.52;;;10.45;;
9940;SDS011;5009;50.656;7.188;2024-03-22T16:52:06;15.70;;;10.75;;
9940;SDS011;5009;50.656;7.188;2024-03-22T16:54:31;12.43;;;9.93;;
9940;SDS011;5009;50.656;7.188;2024-03-22T16:56:57;12.43;;;10.68;;
9940;SDS011;5009;50.656;7.188;2024-03-22T16:59:23;11.38;;;10.00;;
9940;SDS011;5009;50.656;7.188;2024-03-22T17:01:48;12.57;;;10.80;;
9940;SDS011;5009;50.656;7.188;2024-03-22T17:04:16;13.63;;;10.73;;
9940;SDS011;5009;50.656;7.188;2024-03-22T17:06:41;13.63;;;10.43;;
9940;SDS011;5009;50.656;7.188;2024-03-22T17:09:07;14.35;;;11.25;;
9940;SDS011;5009;50.656;7.188;2024-03-22T17:11:34;14.27;;;11.90;;
9940;SDS011;5009;50.656;7.188;2024-03-22T17:13:59;15.70;;;14.10;;
9940;SDS011;5009;50.656;7.188;2024-03-22T17:16:25;16.13;;;14.43;;
9940;SDS011;5009;50.656;7.188;2024-03-22T17:18:50;16.23;;;14.37;;
9940;SDS011;5009;50.656;7.188;2024-03-22T17:21:18;16.43;;;14.40;;
9940;SDS011;5009;50.656;7.188;2024-03-22T17:23:47;16.97;;;15.23;;
9940;SDS011;5009;50.656;7.188;2024-03-22T17:26:13;17.50;;;14.73;;
9940;SDS011;5009;50.656;7.188;2024-03-22T17:28:39;17.40;;;14.63;;
9940;SDS011;5009;50.656;7.188;2024-03-22T17:31:05;18.43;;;15.40;;
9940;SDS011;5009;50.656;7.188;2024-03-22T17:33:30;17.40;;;14.97;;
9940;SDS011;5009;50.656;7.188;2024-03-22T17:35:56;18.23;;;15.37;;
9940;SDS011;5009;50.656;7.188;2024-03-22T17:38:23;17.17;;;15.37;;
9940;SDS011;5009;50.656;7.188;2024-03-22T17:40:49;17.70;;;15.87;;
9940;SDS011;5009;50.656;7.188;2024-03-22T17:43:14;17.87;;;15.73;;
9940;SDS011;5009;50.656;7.188;2024-03-22T17:45:40;18.43;;;16.17;;
9940;SDS011;5009;50.656;7.188;2024-03-22T17:48:05;20.60;;;17.57;;
9940;SDS011;5009;50.656;7.188;2024-03-22T17:50:31;19.60;;;16.37;;
9940;SDS011;5009;50.656;7.188;2024-03-22T17:52:57;21.03;;;17.43;;
9940;SDS011;5009;50.656;7.188;2024-03-22T17:55:22;19.00;;;17.00;;
9940;SDS011;5009;50.656;7.188;2024-03-22T17:57:48;21.67;;;18.87;;
9940;SDS011;5009;50.656;7.188;2024-03-22T18:00:13;20.40;;;18.40;;
9940;SDS011;5009;50.656;7.188;2024-03-22T18:02:39;20.10;;;18.00;;
9940;SDS011;5009;50.656;7.188;2024-03-22T18:05:05;19.30;;;17.23;;
9940;SDS011;5009;50.656;7.188;2024-03-22T18:07:31;20.27;;;17.23;;
9940;SDS011;5009;50.656;7.188;2024-03-22T18:09:57;23.63;;;18.57;;
9940;SDS011;5009;50.656;7.188;2024-03-22T18:12:22;21.13;;;18.70;;
9940;SDS011;5009;50.656;7.188;2024-03-22T18:14:48;26.30;;;20.20;;
9940;SDS011;5009;50.656;7.188;2024-03-22T18:17:13;22.40;;;20.00;;
9940;SDS011;5009;50.656;7.188;2024-03-22T18:19:39;24.00;;;20.83;;
9940;SDS011;5009;50.656;7.188;2024-03-22T18:22:05;25.93;;;21.27;;
9940;SDS011;5009;50.656;7.188;2024-03-22T18:24:31;23.40;;;20.73;;
9940;SDS011;5009;50.656;7.188;2024-03-22T18:26:56;23.13;;;20.63;;
9940;SDS011;5009;50.656;7.188;2024-03-22T18:29:22;23.17;;;20.67;;
9940;SDS011;5009;50.656;7.188;2024-03-22T18:31:48;24.00;;;21.40;;
9940;SDS011;5009;50.656;7.188;2024-03-22T18:34:14;29.17;;;24.70;;
9940;SDS011;5009;50.656;7.188;2024-03-22T18:36:40;31.03;;;25.93;;
9940;SDS011;5009;50.656;7.188;2024-03-22T18:39:07;27.37;;;24.17;;
9940;SDS011;5009;50.656;7.188;2024-03-22T18:41:33;33.27;;;27.20;;
9940;SDS011;5009;50.656;7.188;2024-03-22T18:43:59;32.60;;;29.10;;
9940;SDS011;5009;50.656;7.188;2024-03-22T18:46:25;33.97;;;29.07;;
9940;SDS011;5009;50.656;7.188;2024-03-22T18:48:50;31.80;;;28.37;;
9940;SDS011;5009;50.656;7.188;2024-03-22T18:51:16;30.37;;;27.17;;
9940;SDS011;5009;50.656;7.188;2024-03-22T18:53:41;29.67;;;26.43;;
9940;SDS011;5009;50.656;7.188;2024-03-22T18:56:07;29.50;;;26.33;;
9940;SDS011;5009;50.656;7.188;2024-03-22T18:58:34;28.60;;;25.50;;
9940;SDS011;5009;50.656;7.188;2024-03-22T19:00:59;27.63;;;24.83;;
9940;SDS011;5009;50.656;7.188;2024-03-22T19:03:25;30.33;;;25.93;;
9940;SDS011;5009;50.656;7.188;2024-03-22T19:05:50;27.70;;;24.83;;
9940;SDS011;5009;50.656;7.188;2024-03-22T19:08:16;30.63;;;27.03;;
9940;SDS011;5009;50.656;7.188;2024-03-22T19:10:42;30.27;;;26.97;;
9940;SDS011;5009;50.656;7.188;2024-03-22T19:13:07;29.27;;;26.27;;
9940;SDS011;5009;50.656;7.188;2024-03-22T19:15:34;30.27;;;27.10;;
9940;SDS011;5009;50.656;7.188;2024-03-22T19:17:59;30.37;;;27.27;;
9940;SDS011;5009;50.656;7.188;2024-03-22T19:20:27;31.00;;;27.90;;
9940;SDS011;5009;50.656;7.188;2024-03-22T19:22:53;31.83;;;28.53;;
9940;SDS011;5009;50.656;7.188;2024-03-22T19:25:18;33.03;;;29.63;;
9940;SDS011;5009;50.656;7.188;2024-03-22T19:27:44;34.00;;;30.50;;
9940;SDS011;5009;50.656;7.188;2024-03-22T19:30:10;33.70;;;29.90;;
9940;SDS011;5009;50.656;7.188;2024-03-22T19:32:36;31.47;;;28.30;;
9940;SDS011;5009;50.656;7.188;2024-03-22T19:35:02;31.23;;;27.93;;
9940;SDS011;5009;50.656;7.188;2024-03-22T19:37:28;32.03;;;27.67;;
9940;SDS011;5009;50.656;7.188;2024-03-22T19:39:53;30.23;;;27.20;;
9940;SDS011;5009;50.656;7.188;2024-03-22T19:42:20;30.13;;;26.87;;
9940;SDS011;5009;50.656;7.188;2024-03-22T19:44:45;29.37;;;26.23;;
9940;SDS011;5009;50.656;7.188;2024-03-22T19:47:11;28.87;;;26.00;;
9940;SDS011;5009;50.656;7.188;2024-03-22T19:49:36;30.97;;;27.83;;
9940;SDS011;5009;50.656;7.188;2024-03-22T19:52:02;29.73;;;26.30;;